createdAt,value
2019-05-10T00:00:52.066Z,427
2019-05-10T00:01:54.228Z,418
2019-05-10T00:02:56.486Z,420
2019-05-10T00:03:58.861Z,424
2019-05-10T00:05:01.321Z,421
2019-05-10T00:06:03.410Z,420
2019-05-10T00:07:05.587Z,417
2019-05-10T00:08:08.324Z,416
2019-05-10T00:09:10.176Z,422
2019-05-10T00:10:13.171Z,428
2019-05-10T00:11:14.692Z,436
2019-05-10T00:12:16.974Z,435
2019-05-10T00:13:19.315Z,435
2019-05-10T00:14:21.601Z,422
2019-05-10T00:15:23.868Z,456
2019-05-10T00:16:26.294Z,458
2019-05-10T00:17:28.330Z,456
2019-05-10T00:18:30.594Z,460
2019-05-10T00:19:32.989Z,458
2019-05-10T00:20:35.154Z,476
2019-05-10T00:21:37.440Z,470
2019-05-10T00:22:39.694Z,472
2019-05-10T00:23:42.003Z,469
2019-05-10T00:24:44.266Z,468
2019-05-10T00:25:46.588Z,469
2019-05-10T00:26:48.803Z,467
2019-05-10T00:27:51.096Z,463
2019-05-10T00:28:53.398Z,463
2019-05-10T00:29:55.623Z,460
2019-05-10T00:30:57.874Z,459
2019-05-10T00:32:00.188Z,466
2019-05-10T00:33:02.507Z,461
2019-05-10T00:34:04.789Z,458
2019-05-10T00:35:07.105Z,473
2019-05-10T00:36:09.346Z,471
2019-05-10T00:37:11.807Z,459
2019-05-10T00:38:13.805Z,466
2019-05-10T00:39:16.075Z,474
2019-05-10T00:40:18.493Z,490
2019-05-10T00:41:20.749Z,466
2019-05-10T00:42:23.053Z,465
2019-05-10T00:43:25.164Z,458
2019-05-10T00:44:27.853Z,456
2019-05-10T00:45:29.788Z,454
2019-05-10T00:46:31.989Z,443
2019-05-10T00:47:39.743Z,445
2019-05-10T00:48:37.138Z,462
2019-05-10T00:49:38.990Z,462
2019-05-10T00:50:41.173Z,467
2019-05-10T00:51:43.482Z,459
2019-05-10T00:52:45.748Z,442
2019-05-10T00:53:47.997Z,459
2019-05-10T00:54:50.367Z,457
2019-05-10T00:55:52.593Z,451
2019-05-10T00:56:54.836Z,459
2019-05-10T00:57:57.076Z,462
2019-05-10T00:58:59.359Z,456
2019-05-10T01:00:01.761Z,453
2019-05-10T01:01:04.358Z,447
2019-05-10T01:02:06.185Z,457
2019-05-10T01:03:08.603Z,451
2019-05-10T01:04:10.720Z,449
2019-05-10T01:05:13.014Z,454
2019-05-10T01:06:15.270Z,461
2019-05-10T01:07:17.551Z,456
2019-05-10T01:08:19.939Z,460
2019-05-10T01:09:22.127Z,449
2019-05-10T01:11:26.650Z,437
2019-05-10T01:12:28.938Z,460
2019-05-10T01:13:31.192Z,455
2019-05-10T01:14:33.474Z,457
2019-05-10T01:15:35.750Z,447
2019-05-10T01:16:38.123Z,445
2019-05-10T01:17:43.579Z,447
2019-05-10T01:18:42.631Z,452
2019-05-10T01:19:44.868Z,443
2019-05-10T01:20:47.217Z,445
2019-05-10T01:21:49.395Z,446
2019-05-10T01:22:51.732Z,444
2019-05-10T01:23:54.291Z,440
2019-05-10T01:24:56.219Z,441
2019-05-10T01:25:58.492Z,455
2019-05-10T01:27:00.748Z,439
2019-05-10T01:28:03.051Z,439
2019-05-10T01:29:05.374Z,450
2019-05-10T01:30:07.589Z,442
2019-05-10T01:31:09.950Z,451
2019-05-10T01:32:12.174Z,448
2019-05-10T01:33:14.431Z,449
2019-05-10T01:34:16.659Z,452
2019-05-10T01:35:18.975Z,436
2019-05-10T01:36:21.338Z,427
2019-05-10T01:37:23.497Z,430
2019-05-10T01:38:25.766Z,442
2019-05-10T01:39:28.044Z,440
2019-05-10T01:40:30.610Z,435
2019-05-10T01:41:32.599Z,433
2019-05-10T01:42:34.879Z,443
2019-05-10T01:43:37.145Z,440
2019-05-10T01:44:39.392Z,439
2019-05-10T01:45:41.676Z,444
2019-05-10T01:46:44.015Z,445
2019-05-10T01:47:46.271Z,437
2019-05-10T01:48:48.585Z,445
2019-05-10T01:49:50.769Z,442
2019-05-10T01:50:53.092Z,443
2019-05-10T01:51:55.494Z,437
2019-05-10T01:52:57.672Z,448
2019-05-10T01:54:00.023Z,448
2019-05-10T01:55:02.351Z,445
2019-05-10T01:56:04.535Z,433
2019-05-10T01:57:06.877Z,447
2019-05-10T01:58:09.174Z,447
2019-05-10T01:59:11.312Z,444
2019-05-10T02:00:13.580Z,437
2019-05-10T02:01:15.908Z,442
2019-05-10T02:02:18.146Z,433
2019-05-10T02:03:20.459Z,436
2019-05-10T02:04:22.847Z,434
2019-05-10T02:05:24.973Z,441
2019-05-10T02:06:27.362Z,439
2019-05-10T02:07:29.493Z,437
2019-05-10T02:08:31.950Z,443
2019-05-10T02:09:34.063Z,433
2019-05-10T02:11:38.627Z,432
2019-05-10T02:12:40.973Z,428
2019-05-10T02:13:43.161Z,440
2019-05-10T02:14:45.450Z,437
2019-05-10T02:15:47.873Z,427
2019-05-10T02:16:49.979Z,435
2019-05-10T02:17:52.250Z,437
2019-05-10T02:18:54.577Z,441
2019-05-10T02:19:56.827Z,427
2019-05-10T02:20:59.156Z,441
2019-05-10T02:22:01.353Z,441
2019-05-10T02:23:03.619Z,445
2019-05-10T02:24:05.889Z,448
2019-05-10T02:25:08.340Z,444
2019-05-10T02:26:10.444Z,434
2019-05-10T02:27:12.837Z,428
2019-05-10T02:28:14.993Z,436
2019-05-10T02:29:17.334Z,442
2019-05-10T02:30:19.650Z,439
2019-05-10T02:31:21.885Z,426
2019-05-10T02:32:24.205Z,440
2019-05-10T02:33:26.358Z,447
2019-05-10T02:34:28.612Z,451
2019-05-10T02:35:30.976Z,490
2019-05-10T02:36:33.171Z,481
2019-05-10T02:37:36.848Z,482
2019-05-10T02:38:37.778Z,489
2019-05-10T02:39:40.227Z,476
2019-05-10T02:40:42.259Z,491
2019-05-10T02:41:44.552Z,496
2019-05-10T02:42:46.964Z,491
2019-05-10T02:43:49.109Z,474
2019-05-10T02:44:51.417Z,485
2019-05-10T02:45:53.784Z,492
2019-05-10T02:46:55.897Z,475
2019-05-10T02:47:58.235Z,462
2019-05-10T02:49:00.446Z,489
2019-05-10T02:50:02.743Z,488
2019-05-10T02:51:05.169Z,461
2019-05-10T02:52:11.387Z,463
2019-05-10T02:53:09.711Z,462
2019-05-10T02:54:11.993Z,478
2019-05-10T02:55:14.206Z,478
2019-05-10T02:56:16.466Z,486
2019-05-10T02:57:18.734Z,472
2019-05-10T02:58:21.006Z,455
2019-05-10T02:59:23.283Z,463
2019-05-10T03:00:25.950Z,473
2019-05-10T03:01:27.873Z,476
2019-05-10T03:02:30.199Z,511
2019-05-10T03:03:32.416Z,502
2019-05-10T03:04:35.013Z,481
2019-05-10T03:05:37.134Z,487
2019-05-10T03:06:39.292Z,480
2019-05-10T03:07:41.466Z,489
2019-05-10T03:08:43.948Z,480
2019-05-10T03:09:46.391Z,472
2019-05-10T03:10:48.341Z,502
2019-05-10T03:11:50.604Z,490
2019-05-10T03:12:52.959Z,499
2019-05-10T03:13:55.137Z,517
2019-05-10T03:14:57.407Z,560
2019-05-10T03:15:59.743Z,556
2019-05-10T03:17:02.095Z,582
2019-05-10T03:18:04.278Z,609
2019-05-10T03:19:06.785Z,627
2019-05-10T03:20:08.848Z,618
2019-05-10T03:21:11.807Z,599
2019-05-10T03:22:13.337Z,588
2019-05-10T03:23:15.603Z,590
2019-05-10T03:24:17.853Z,601
2019-05-10T03:25:20.875Z,587
2019-05-10T03:26:22.455Z,587
2019-05-10T03:27:24.716Z,573
2019-05-10T03:28:26.959Z,593
2019-05-10T03:29:29.290Z,583
2019-05-10T03:30:31.606Z,597
2019-05-10T03:31:33.798Z,585
2019-05-10T03:32:36.073Z,584
2019-05-10T03:33:38.345Z,593
2019-05-10T03:34:40.623Z,577
2019-05-10T03:35:42.913Z,580
2019-05-10T03:36:45.146Z,607
2019-05-10T03:37:47.453Z,602
2019-05-10T03:38:53.925Z,589
2019-05-10T03:39:52.309Z,586
2019-05-10T03:40:54.321Z,601
2019-05-10T03:41:56.681Z,602
2019-05-10T03:42:58.952Z,600
2019-05-10T03:44:01.392Z,601
2019-05-10T03:45:03.513Z,588
2019-05-10T03:46:06.197Z,599
2019-05-10T03:47:08.045Z,586
2019-05-10T03:48:10.311Z,594
2019-05-10T03:49:12.598Z,575
2019-05-10T03:50:14.948Z,586
2019-05-10T03:51:21.061Z,595
2019-05-10T03:52:19.573Z,571
2019-05-10T03:53:21.928Z,577
2019-05-10T03:54:24.108Z,576
2019-05-10T03:55:26.315Z,571
2019-05-10T03:56:28.784Z,564
2019-05-10T03:57:30.863Z,564
2019-05-10T03:58:33.124Z,578
2019-05-10T03:59:35.389Z,579
2019-05-10T04:00:37.900Z,556
2019-05-10T04:01:40.267Z,567
2019-05-10T04:02:42.220Z,563
2019-05-10T04:03:44.602Z,556
2019-05-10T04:04:46.784Z,580
2019-05-10T04:05:49.033Z,569
2019-05-10T04:06:51.306Z,587
2019-05-10T04:07:53.623Z,601
2019-05-10T04:08:56.132Z,628
2019-05-10T04:10:00.408Z,600
2019-05-10T04:11:00.759Z,616
2019-05-10T04:12:02.677Z,617
2019-05-10T04:13:05.035Z,607
2019-05-10T04:14:07.896Z,615
2019-05-10T04:15:09.534Z,627
2019-05-10T04:16:11.797Z,647
2019-05-10T04:17:14.061Z,630
2019-05-10T04:18:16.357Z,637
2019-05-10T04:19:19.979Z,630
2019-05-10T04:20:20.941Z,632
2019-05-10T04:21:23.177Z,626
2019-05-10T04:22:25.623Z,620
2019-05-10T04:23:27.713Z,622
2019-05-10T04:24:30.010Z,625
2019-05-10T04:25:32.365Z,621
2019-05-10T04:26:34.603Z,613
2019-05-10T04:27:36.804Z,625
2019-05-10T04:28:39.071Z,626
2019-05-10T04:29:41.357Z,618
2019-05-10T04:30:43.831Z,601
2019-05-10T04:31:45.902Z,624
2019-05-10T04:32:48.216Z,604
2019-05-10T04:33:50.470Z,605
2019-05-10T04:34:55.745Z,628
2019-05-10T04:35:55.013Z,622
2019-05-10T04:36:57.248Z,650
2019-05-10T04:37:59.563Z,649
2019-05-10T04:39:01.808Z,631
2019-05-10T04:40:08.691Z,639
2019-05-10T04:41:06.643Z,639
2019-05-10T04:42:08.684Z,648
2019-05-10T04:43:11.026Z,671
2019-05-10T04:44:13.294Z,620
2019-05-10T04:45:15.751Z,648
2019-05-10T04:46:17.875Z,671
2019-05-10T04:47:20.108Z,664
2019-05-10T04:48:22.378Z,619
2019-05-10T04:49:24.642Z,664
2019-05-10T04:50:26.901Z,638
2019-05-10T04:51:29.222Z,651
2019-05-10T04:52:31.550Z,619
2019-05-10T04:53:34.118Z,659
2019-05-10T04:54:36.094Z,645
2019-05-10T04:55:38.389Z,650
2019-05-10T04:56:40.638Z,648
2019-05-10T04:57:42.916Z,671
2019-05-10T04:58:45.186Z,678
2019-05-10T04:59:47.469Z,653
2019-05-10T05:00:49.723Z,636
2019-05-10T05:01:52.145Z,632
2019-05-10T05:02:54.285Z,640
2019-05-10T05:03:56.554Z,641
2019-05-10T05:04:58.839Z,611
2019-05-10T05:06:01.201Z,641
2019-05-10T05:07:03.401Z,640
2019-05-10T05:08:05.651Z,653
2019-05-10T05:09:08.017Z,623
2019-05-10T05:10:11.754Z,635
2019-05-10T05:11:12.577Z,630
2019-05-10T05:12:14.753Z,634
2019-05-10T05:13:19.506Z,635
2019-05-10T05:14:19.327Z,621
2019-05-10T05:15:21.615Z,603
2019-05-10T05:16:23.825Z,622
2019-05-10T05:17:26.121Z,583
2019-05-10T05:18:28.387Z,619
2019-05-10T05:19:32.161Z,584
2019-05-10T05:20:33.054Z,597
2019-05-10T05:21:35.209Z,638
2019-05-10T05:22:37.576Z,594
2019-05-10T05:23:39.753Z,659
2019-05-10T05:24:48.329Z,573
2019-05-10T05:25:44.293Z,559
2019-05-10T05:26:46.571Z,561
2019-05-10T05:27:48.978Z,574
2019-05-10T05:28:51.213Z,569
2019-05-10T05:29:57.961Z,576
2019-05-10T05:30:55.791Z,573
2019-05-10T05:31:57.960Z,565
2019-05-10T05:33:00.255Z,569
2019-05-10T05:34:02.501Z,556
2019-05-10T05:35:04.867Z,542
2019-05-10T05:36:07.051Z,547
2019-05-10T05:37:09.358Z,545
2019-05-10T05:38:11.697Z,539
2019-05-10T05:39:13.947Z,533
2019-05-10T05:41:18.404Z,525
2019-05-10T05:42:20.792Z,532
2019-05-10T05:43:22.945Z,519
2019-05-10T05:44:25.303Z,507
2019-05-10T05:45:27.487Z,509
2019-05-10T05:46:29.926Z,516
2019-05-10T05:47:32.157Z,512
2019-05-10T05:48:34.347Z,518
2019-05-10T05:49:36.664Z,507
2019-05-10T05:50:38.863Z,499
2019-05-10T05:51:41.272Z,501
2019-05-10T05:52:43.597Z,498
2019-05-10T05:53:45.811Z,488
2019-05-10T05:54:48.052Z,492
2019-05-10T05:55:50.379Z,483
2019-05-10T05:56:52.977Z,495
2019-05-10T05:57:55.110Z,499
2019-05-10T05:58:57.165Z,494
2019-05-10T05:59:59.424Z,466
2019-05-10T06:01:01.830Z,466
2019-05-10T06:02:04.007Z,482
2019-05-10T06:03:06.263Z,534
2019-05-10T06:04:08.524Z,540
2019-05-10T06:05:10.887Z,554
2019-05-10T06:06:18.886Z,523
2019-05-10T06:07:15.355Z,528
2019-05-10T06:08:17.767Z,513
2019-05-10T06:09:19.877Z,545
2019-05-10T06:10:22.417Z,523
2019-05-10T06:11:24.411Z,486
2019-05-10T06:12:26.721Z,467
2019-05-10T06:13:29.049Z,456
2019-05-10T06:14:31.268Z,445
2019-05-10T06:15:33.547Z,430
2019-05-10T06:16:35.903Z,418
2019-05-10T06:17:38.137Z,413
2019-05-10T06:18:40.449Z,409
2019-05-10T06:19:42.726Z,393
2019-05-10T06:20:44.912Z,391
2019-05-10T06:21:47.161Z,387
2019-05-10T06:22:49.452Z,381
2019-05-10T06:23:51.783Z,374
2019-05-10T06:24:54.184Z,362
2019-05-10T06:25:56.251Z,372
2019-05-10T06:26:58.582Z,363
2019-05-10T06:28:00.865Z,368
2019-05-10T06:29:03.123Z,349
2019-05-10T06:30:05.613Z,356
2019-05-10T06:31:07.658Z,352
2019-05-10T06:32:09.981Z,347
2019-05-10T06:33:12.242Z,334
2019-05-10T06:34:14.481Z,342
2019-05-10T06:35:16.724Z,332
2019-05-10T06:36:19.106Z,331
2019-05-10T06:37:21.282Z,334
2019-05-10T06:38:23.615Z,333
2019-05-10T06:39:25.816Z,320
2019-05-10T06:41:30.400Z,311
2019-05-10T06:42:32.775Z,319
2019-05-10T06:43:34.928Z,310
2019-05-10T06:44:37.293Z,322
2019-05-10T06:45:39.513Z,310
2019-05-10T06:46:41.981Z,306
2019-05-10T06:47:44.038Z,302
2019-05-10T06:48:46.291Z,311
2019-05-10T06:49:48.604Z,302
2019-05-10T06:50:53.661Z,307
2019-05-10T06:51:53.144Z,298
2019-05-10T06:52:55.474Z,302
2019-05-10T06:53:57.820Z,303
2019-05-10T06:55:00.126Z,292
2019-05-10T06:56:02.303Z,292
2019-05-10T06:57:06.128Z,294
2019-05-10T06:58:07.184Z,282
2019-05-10T06:59:09.137Z,298
2019-05-10T07:00:11.408Z,298
2019-05-10T07:01:13.693Z,295
2019-05-10T07:02:15.962Z,284
2019-05-10T07:03:21.975Z,286
2019-05-10T07:04:20.483Z,287
2019-05-10T07:05:22.811Z,294
2019-05-10T07:06:25.108Z,292
2019-05-10T07:07:27.338Z,288
2019-05-10T07:08:29.685Z,288
2019-05-10T07:09:31.929Z,300
2019-05-10T07:10:34.190Z,314
2019-05-10T07:11:36.588Z,326
2019-05-10T07:12:38.790Z,331
2019-05-10T07:13:41.052Z,339
2019-05-10T07:14:43.318Z,333
2019-05-10T07:15:45.490Z,337
2019-05-10T07:16:47.756Z,352
2019-05-10T07:17:50.038Z,353
2019-05-10T07:18:52.330Z,339
2019-05-10T07:19:54.678Z,347
2019-05-10T07:20:56.902Z,363
2019-05-10T07:21:59.149Z,371
2019-05-10T07:23:01.485Z,394
2019-05-10T07:24:03.710Z,413
2019-05-10T07:25:05.981Z,432
2019-05-10T07:27:10.581Z,462
2019-05-10T07:28:12.801Z,476
2019-05-10T07:29:15.057Z,465
2019-05-10T07:30:17.392Z,502
2019-05-10T07:31:19.696Z,494
2019-05-10T07:32:22.016Z,491
2019-05-10T07:33:24.158Z,493
2019-05-10T07:34:26.453Z,474
2019-05-10T07:35:28.761Z,479
2019-05-10T07:36:30.976Z,480
2019-05-10T07:37:33.302Z,474
2019-05-10T07:38:35.533Z,475
2019-05-10T07:39:39.741Z,472
2019-05-10T07:41:42.451Z,482
2019-05-10T07:42:44.704Z,479
2019-05-10T07:43:46.977Z,471
2019-05-10T07:44:49.155Z,467
2019-05-10T07:45:51.490Z,469
2019-05-10T07:46:53.693Z,473
2019-05-10T07:47:56.014Z,465
2019-05-10T07:48:58.234Z,450
2019-05-10T07:50:00.600Z,443
2019-05-10T07:51:02.774Z,445
2019-05-10T07:52:05.277Z,443
2019-05-10T07:53:07.400Z,445
2019-05-10T07:54:09.632Z,437
2019-05-10T07:55:11.989Z,430
2019-05-10T07:56:15.287Z,432
2019-05-10T07:57:16.510Z,434
2019-05-10T07:58:18.775Z,431
2019-05-10T07:59:21.063Z,430
2019-05-10T08:00:24.546Z,433
2019-05-10T08:01:25.770Z,419
2019-05-10T08:02:27.973Z,418
2019-05-10T08:03:30.141Z,422
2019-05-10T08:05:34.823Z,419
2019-05-10T08:06:37.257Z,426
2019-05-10T08:07:39.218Z,426
2019-05-10T08:08:41.491Z,412
2019-05-10T08:09:43.914Z,413
2019-05-10T08:10:46.799Z,403
2019-05-10T08:11:52.363Z,403
2019-05-10T08:12:50.723Z,413
2019-05-10T08:13:53.025Z,396
2019-05-10T08:14:55.260Z,404
2019-05-10T08:15:57.567Z,397
2019-05-10T08:16:59.877Z,397
2019-05-10T08:18:02.093Z,397
2019-05-10T08:19:04.515Z,388
2019-05-10T08:20:06.765Z,383
2019-05-10T08:21:08.924Z,390
2019-05-10T08:22:11.279Z,383
2019-05-10T08:23:13.619Z,384
2019-05-10T08:24:15.818Z,400
2019-05-10T08:25:18.366Z,416
2019-05-10T08:26:20.351Z,401
2019-05-10T08:27:22.628Z,406
2019-05-10T08:28:24.894Z,416
2019-05-10T08:29:27.835Z,413
2019-05-10T08:30:29.423Z,412
2019-05-10T08:31:31.752Z,410
2019-05-10T08:32:33.993Z,434
2019-05-10T08:33:36.179Z,437
2019-05-10T08:34:38.642Z,451
2019-05-10T08:35:40.814Z,440
2019-05-10T08:36:42.984Z,456
2019-05-10T08:37:45.400Z,441
2019-05-10T08:38:47.540Z,442
2019-05-10T08:39:56.116Z,446
2019-05-10T08:40:52.758Z,441
2019-05-10T08:41:54.378Z,433
2019-05-10T08:42:56.648Z,439
2019-05-10T08:43:58.891Z,433
2019-05-10T08:45:01.286Z,448
2019-05-10T08:46:03.707Z,434
2019-05-10T08:47:05.803Z,423
2019-05-10T08:48:08.024Z,424
2019-05-10T08:49:10.383Z,424
2019-05-10T08:50:12.707Z,425
2019-05-10T08:51:14.820Z,428
2019-05-10T08:52:17.187Z,428
2019-05-10T08:53:19.384Z,422
2019-05-10T08:54:21.922Z,426
2019-05-10T08:55:24.057Z,429
2019-05-10T08:56:26.256Z,419
2019-05-10T08:57:28.649Z,424
2019-05-10T08:58:30.892Z,429
2019-05-10T08:59:33.082Z,435
2019-05-10T09:00:35.434Z,403
2019-05-10T09:01:37.697Z,409
2019-05-10T09:02:39.976Z,417
2019-05-10T09:03:42.533Z,423
2019-05-10T09:04:44.432Z,417
2019-05-10T09:05:46.726Z,425
2019-05-10T09:06:49.168Z,424
2019-05-10T09:07:51.334Z,436
2019-05-10T09:08:53.553Z,415
2019-05-10T09:09:57.965Z,431
2019-05-10T09:10:58.067Z,427
2019-05-10T09:12:00.324Z,418
2019-05-10T09:13:02.622Z,422
2019-05-10T09:14:06.037Z,425
2019-05-10T09:15:07.346Z,425
2019-05-10T09:16:09.478Z,435
2019-05-10T09:17:11.721Z,411
2019-05-10T09:18:14.060Z,413
2019-05-10T09:19:16.241Z,419
2019-05-10T09:20:18.612Z,398
2019-05-10T09:21:20.837Z,405
2019-05-10T09:22:23.096Z,421
2019-05-10T09:23:25.358Z,389
2019-05-10T09:24:27.605Z,389
2019-05-10T09:25:29.886Z,396
2019-05-10T09:26:32.322Z,388
2019-05-10T09:27:34.549Z,400
2019-05-10T09:28:37.432Z,393
2019-05-10T09:29:39.066Z,389
2019-05-10T09:30:41.253Z,403
2019-05-10T09:31:43.540Z,405
2019-05-10T09:32:45.862Z,398
2019-05-10T09:33:48.077Z,405
2019-05-10T09:34:50.564Z,398
2019-05-10T09:35:52.711Z,400
2019-05-10T09:36:54.983Z,406
2019-05-10T09:37:57.288Z,408
2019-05-10T09:38:59.421Z,397
2019-05-10T09:40:01.961Z,402
2019-05-10T09:41:08.525Z,395
2019-05-10T09:42:06.395Z,407
2019-05-10T09:43:08.568Z,406
2019-05-10T09:44:10.777Z,404
2019-05-10T09:45:13.211Z,418
2019-05-10T09:46:15.361Z,401
2019-05-10T09:47:17.637Z,425
2019-05-10T09:48:19.870Z,408
2019-05-10T09:49:22.146Z,404
2019-05-10T09:50:24.418Z,404
2019-05-10T09:51:26.820Z,405
2019-05-10T09:52:29.054Z,407
2019-05-10T09:53:31.267Z,408
2019-05-10T09:54:33.515Z,410
2019-05-10T09:55:35.889Z,393
2019-05-10T09:56:38.185Z,416
2019-05-10T09:57:40.395Z,411
2019-05-10T09:58:42.599Z,403
2019-05-10T09:59:44.888Z,405
2019-05-10T10:00:47.189Z,406
2019-05-10T10:01:49.419Z,406
2019-05-10T10:02:51.830Z,421
2019-05-10T10:03:53.968Z,420
2019-05-10T10:04:56.241Z,408
2019-05-10T10:05:59.456Z,409
2019-05-10T10:07:00.797Z,398
2019-05-10T10:08:03.105Z,418
2019-05-10T10:09:05.407Z,417
2019-05-10T10:10:12.064Z,404
2019-05-10T10:11:09.982Z,418
2019-05-10T10:12:12.170Z,409
2019-05-10T10:13:14.423Z,401
2019-05-10T10:14:20.965Z,401
2019-05-10T10:15:18.996Z,404
2019-05-10T10:16:21.240Z,403
2019-05-10T10:17:23.601Z,389
2019-05-10T10:18:26.005Z,405
2019-05-10T10:19:28.068Z,404
2019-05-10T10:20:30.349Z,400
2019-05-10T10:21:32.665Z,407
2019-05-10T10:22:34.875Z,397
2019-05-10T10:23:37.146Z,401
2019-05-10T10:24:39.617Z,404
2019-05-10T10:25:41.828Z,405
2019-05-10T10:26:43.993Z,430
2019-05-10T10:27:46.269Z,419
2019-05-10T10:28:48.529Z,419
2019-05-10T10:29:51.019Z,424
2019-05-10T10:30:53.090Z,422
2019-05-10T10:31:55.453Z,420
2019-05-10T10:32:57.646Z,425
2019-05-10T10:33:59.926Z,429
2019-05-10T10:35:02.402Z,438
2019-05-10T10:36:04.421Z,428
2019-05-10T10:37:06.960Z,410
2019-05-10T10:38:08.964Z,431
2019-05-10T10:39:11.345Z,435
2019-05-10T10:40:15.600Z,448
2019-05-10T10:41:15.788Z,443
2019-05-10T10:42:18.093Z,435
2019-05-10T10:43:20.325Z,431
2019-05-10T10:44:22.664Z,425
2019-05-10T10:45:25.009Z,436
2019-05-10T10:46:27.171Z,450
2019-05-10T10:47:29.888Z,436
2019-05-10T10:48:31.799Z,433
2019-05-10T10:49:33.975Z,439
2019-05-10T10:50:36.395Z,429
2019-05-10T10:51:38.651Z,436
2019-05-10T10:52:40.802Z,456
2019-05-10T10:53:43.183Z,440
2019-05-10T10:54:45.344Z,436
2019-05-10T10:55:47.701Z,429
2019-05-10T10:56:49.979Z,431
2019-05-10T10:57:52.672Z,437
2019-05-10T10:58:54.624Z,434
2019-05-10T10:59:56.944Z,427
2019-05-10T11:00:59.130Z,434
2019-05-10T11:02:01.401Z,424
2019-05-10T11:03:03.606Z,439
2019-05-10T11:04:06.087Z,448
2019-05-10T11:05:08.220Z,435
2019-05-10T11:06:10.414Z,442
2019-05-10T11:07:12.901Z,438
2019-05-10T11:08:14.954Z,448
2019-05-10T11:09:20.648Z,425
2019-05-10T11:10:19.686Z,430
2019-05-10T11:11:21.771Z,468
2019-05-10T11:12:24.063Z,477
2019-05-10T11:13:26.656Z,479
2019-05-10T11:14:28.686Z,475
2019-05-10T11:15:30.881Z,470
2019-05-10T11:16:33.190Z,468
2019-05-10T11:17:35.468Z,471
2019-05-10T11:18:37.716Z,439
2019-05-10T11:19:41.367Z,469
2019-05-10T11:20:42.252Z,465
2019-05-10T11:21:44.515Z,463
2019-05-10T11:22:46.785Z,458
2019-05-10T11:23:49.050Z,468
2019-05-10T11:24:51.387Z,484
2019-05-10T11:25:53.753Z,485
2019-05-10T11:26:55.905Z,500
2019-05-10T11:27:58.249Z,498
2019-05-10T11:29:04.976Z,485
2019-05-10T11:30:02.796Z,502
2019-05-10T11:31:07.044Z,475
2019-05-10T11:32:07.334Z,460
2019-05-10T11:33:09.614Z,474
2019-05-10T11:34:12.257Z,469
2019-05-10T11:35:14.231Z,488
2019-05-10T11:36:16.408Z,497
2019-05-10T11:37:20.386Z,507
2019-05-10T11:38:21.271Z,520
2019-05-10T11:39:23.271Z,499
2019-05-10T11:40:27.555Z,522
2019-05-10T11:41:28.259Z,505
2019-05-10T11:42:30.152Z,482
2019-05-10T11:43:32.324Z,484
2019-05-10T11:44:34.678Z,474
2019-05-10T11:45:36.873Z,491
2019-05-10T11:46:39.137Z,474
2019-05-10T11:47:41.507Z,486
2019-05-10T11:48:43.686Z,480
2019-05-10T11:49:46.032Z,482
2019-05-10T11:50:48.242Z,483
2019-05-10T11:51:52.211Z,469
2019-05-10T11:52:52.979Z,469
2019-05-10T11:53:55.060Z,471
2019-05-10T11:54:57.317Z,464
2019-05-10T11:55:59.622Z,476
2019-05-10T11:57:01.904Z,480
2019-05-10T11:58:05.441Z,489
2019-05-10T11:59:06.489Z,492
2019-05-10T12:00:08.717Z,478
2019-05-10T12:01:11.095Z,477
2019-05-10T12:02:13.257Z,465
2019-05-10T12:03:15.643Z,485
2019-05-10T12:04:17.778Z,478
2019-05-10T12:05:20.112Z,478
2019-05-10T12:06:25.752Z,476
2019-05-10T12:07:24.695Z,471
2019-05-10T12:08:26.954Z,487
2019-05-10T12:09:29.144Z,485
2019-05-10T12:10:31.493Z,475
2019-05-10T12:11:33.766Z,489
2019-05-10T12:12:35.954Z,486
2019-05-10T12:13:38.259Z,485
2019-05-10T12:14:40.672Z,500
2019-05-10T12:15:42.776Z,496
2019-05-10T12:16:45.133Z,500
2019-05-10T12:17:47.337Z,499
2019-05-10T12:18:49.615Z,492
2019-05-10T12:19:51.966Z,478
2019-05-10T12:20:54.137Z,504
2019-05-10T12:21:56.520Z,489
2019-05-10T12:22:58.730Z,509
2019-05-10T12:24:00.962Z,497
2019-05-10T12:25:03.249Z,485
2019-05-10T12:26:05.527Z,490
2019-05-10T12:27:07.994Z,495
2019-05-10T12:28:10.034Z,500
2019-05-10T12:29:12.465Z,491
2019-05-10T12:30:14.830Z,497
2019-05-10T12:31:16.913Z,470
2019-05-10T12:32:20.758Z,486
2019-05-10T12:33:21.985Z,497
2019-05-10T12:34:23.937Z,483
2019-05-10T12:35:26.057Z,485
2019-05-10T12:36:28.330Z,499
2019-05-10T12:37:30.607Z,489
2019-05-10T12:38:33.141Z,487
2019-05-10T12:39:35.854Z,479
2019-05-10T12:40:37.787Z,482
2019-05-10T12:41:39.838Z,488
2019-05-10T12:42:42.017Z,488
2019-05-10T12:43:44.311Z,481
2019-05-10T12:44:46.612Z,494
2019-05-10T12:45:48.767Z,496
2019-05-10T12:46:51.036Z,487
2019-05-10T12:47:53.404Z,498
2019-05-10T12:48:57.478Z,501
2019-05-10T12:49:57.867Z,495
2019-05-10T12:51:00.265Z,490
2019-05-10T12:52:02.520Z,493
2019-05-10T12:53:04.705Z,495
2019-05-10T12:54:10.825Z,499
2019-05-10T12:55:09.226Z,490
2019-05-10T12:56:11.501Z,495
2019-05-10T12:57:13.915Z,494
2019-05-10T12:58:20.096Z,484
2019-05-10T12:59:18.490Z,496
2019-05-10T13:00:20.738Z,489
2019-05-10T13:01:23.135Z,494
2019-05-10T13:02:25.282Z,488
2019-05-10T13:03:27.497Z,507
2019-05-10T13:04:29.837Z,505
2019-05-10T13:05:32.191Z,513
2019-05-10T13:06:34.307Z,493
2019-05-10T13:07:36.672Z,490
2019-05-10T13:08:38.968Z,502
2019-05-10T13:09:41.933Z,488
2019-05-10T13:10:43.480Z,493
2019-05-10T13:11:45.744Z,481
2019-05-10T13:12:52.671Z,493
2019-05-10T13:13:50.204Z,489
2019-05-10T13:14:52.568Z,488
2019-05-10T13:15:54.749Z,500
2019-05-10T13:16:57.098Z,496
2019-05-10T13:17:59.397Z,500
2019-05-10T13:19:01.571Z,494
2019-05-10T13:20:03.838Z,492
2019-05-10T13:21:06.170Z,490
2019-05-10T13:22:08.475Z,491
2019-05-10T13:23:10.663Z,501
2019-05-10T13:24:13.000Z,484
2019-05-10T13:25:15.218Z,502
2019-05-10T13:26:17.469Z,483
2019-05-10T13:27:19.840Z,503
2019-05-10T13:28:22.031Z,501
2019-05-10T13:29:24.381Z,487
2019-05-10T13:30:26.639Z,504
2019-05-10T13:31:28.878Z,499
2019-05-10T13:32:31.120Z,492
2019-05-10T13:33:33.396Z,477
2019-05-10T13:34:35.738Z,474
2019-05-10T13:35:37.958Z,473
2019-05-10T13:36:40.432Z,483
2019-05-10T13:37:42.520Z,484
2019-05-10T13:38:44.752Z,470
2019-05-10T13:39:47.215Z,469
2019-05-10T13:40:49.370Z,467
2019-05-10T13:41:51.645Z,468
2019-05-10T13:42:53.841Z,481
2019-05-10T13:43:56.176Z,478
2019-05-10T13:44:58.608Z,481
2019-05-10T13:46:00.660Z,488
2019-05-10T13:47:03.061Z,471
2019-05-10T13:48:05.211Z,483
2019-05-10T13:49:07.800Z,471
2019-05-10T13:50:09.755Z,481
2019-05-10T13:51:12.022Z,487
2019-05-10T13:52:14.313Z,469
2019-05-10T13:53:16.566Z,495
2019-05-10T13:54:18.915Z,481
2019-05-10T13:55:21.114Z,501
2019-05-10T13:56:23.512Z,488
2019-05-10T13:57:26.020Z,481
2019-05-10T13:58:28.018Z,482
2019-05-10T13:59:30.495Z,482
2019-05-10T14:00:32.601Z,468
2019-05-10T14:01:34.842Z,465
2019-05-10T14:02:37.267Z,475
2019-05-10T14:03:39.395Z,474
2019-05-10T14:04:41.645Z,460
2019-05-10T14:05:44.013Z,461
2019-05-10T14:06:46.226Z,465
2019-05-10T14:07:48.551Z,462
2019-05-10T14:08:50.756Z,466
2019-05-10T14:09:54.880Z,457
2019-05-10T14:10:55.480Z,469
2019-05-10T14:11:57.567Z,467
2019-05-10T14:12:59.867Z,454
2019-05-10T14:14:02.254Z,480
2019-05-10T14:15:04.938Z,459
2019-05-10T14:16:06.780Z,472
2019-05-10T14:17:08.932Z,449
2019-05-10T14:18:11.199Z,462
2019-05-10T14:19:13.456Z,468
2019-05-10T14:20:15.747Z,471
2019-05-10T14:21:20.682Z,467
2019-05-10T14:22:20.374Z,477
2019-05-10T14:23:22.564Z,467
2019-05-10T14:24:24.833Z,461
2019-05-10T14:25:27.114Z,455